Time;durP1;ratioP1;P1;durP2;ratioP2;P2;SDS_P1;SDS_P2;PMS_P1;PMS_P2;Temp;Humidity;BMP_temperature;BMP_pressure;BME280_temperature;BME280_humidity;BME280_pressure;Samples;Min_cycle;Max_cycle;Signal;HPM_P1;HPM_P2
2022/08/19 00:02:37;;;;;;;15.32;10.82;;;;;;;26.67;100.00;100634.72;5082088;28;20093;-73
2022/08/19 00:05:23;;;;;;;16.80;11.25;;;;;;;26.55;100.00;100639.25;5097273;28;20364;-73
2022/08/19 00:08:09;;;;;;;15.38;11.88;;;;;;;26.55;100.00;100636.59;5096587;28;20024;-72
2022/08/19 00:10:54;;;;;;;17.38;10.75;;;;;;;26.51;100.00;100634.28;5081751;28;20030;-72
2022/08/19 00:13:40;;;;;;;15.63;11.32;;;;;;;26.58;100.00;100643.56;5095562;28;20448;-72
2022/08/19 00:16:26;;;;;;;15.60;11.88;;;;;;;26.56;100.00;100632.91;5095601;28;20035;-73
2022/08/19 00:19:13;;;;;;;14.88;10.90;;;;;;;26.24;100.00;100633.91;5095973;28;20026;-73
2022/08/19 00:21:59;;;;;;;15.73;11.70;;;;;;;26.35;100.00;100634.72;5096930;28;20016;-72
2022/08/19 00:24:45;;;;;;;14.57;11.35;;;;;;;26.63;100.00;100634.13;5096619;28;20059;-72
2022/08/19 00:27:31;;;;;;;15.05;11.05;;;;;;;26.80;100.00;100636.22;5096725;28;20372;-72
2022/08/19 00:30:17;;;;;;;13.10;11.70;;;;;;;26.44;100.00;100638.47;5095786;28;20085;-72
2022/08/19 00:33:03;;;;;;;14.68;11.60;;;;;;;26.08;100.00;100631.63;5096089;28;20112;-72
2022/08/19 00:35:48;;;;;;;14.65;11.13;;;;;;;26.32;100.00;100629.59;5096607;28;20028;-72
2022/08/19 00:38:37;;;;;;;17.98;11.38;;;;;;;26.18;100.00;100634.41;5096319;28;20356;-72
2022/08/19 00:41:24;;;;;;;17.80;11.48;;;;;;;26.30;100.00;100630.72;5096030;28;20069;-73
2022/08/19 00:44:14;;;;;;;14.13;11.52;;;;;;;26.23;100.00;100632.19;5096154;28;20406;-72
2022/08/19 00:47:00;;;;;;;15.18;11.10;;;;;;;26.12;100.00;100626.88;5094836;28;20111;-73
2022/08/19 00:49:53;;;;;;;12.90;11.13;;;;;;;26.22;100.00;100627.81;5094550;28;20020;-72
2022/08/19 00:52:44;;;;;;;13.05;11.68;;;;;;;26.43;100.00;100628.69;5096147;28;20028;-73
2022/08/19 00:55:32;;;;;;;15.38;10.98;;;;;;;26.51;100.00;100628.91;5094571;28;20165;-73
2022/08/19 00:58:21;;;;;;;14.63;11.55;;;;;;;26.39;100.00;100625.41;5095223;28;20032;-73
2022/08/19 01:01:07;;;;;;;15.25;11.15;;;;;;;26.12;100.00;100626.88;5080164;28;20431;-73
2022/08/19 01:03:53;;;;;;;12.23;10.50;;;;;;;26.01;100.00;100624.22;5094987;28;20034;-73
2022/08/19 01:06:41;;;;;;;14.27;11.50;;;;;;;26.11;100.00;100617.97;5095845;28;20028;-73
2022/08/19 01:09:26;;;;;;;14.32;11.95;;;;;;;25.95;100.00;100625.59;5095140;28;20069;-73
2022/08/19 01:12:13;;;;;;;17.85;11.52;;;;;;;25.97;100.00;100614.72;5094514;28;20024;-72
2022/08/19 01:14:59;;;;;;;18.75;12.07;;;;;;;25.80;100.00;100609.84;5094272;28;20035;-72
2022/08/19 01:17:46;;;;;;;15.82;11.80;;;;;;;26.07;100.00;100616.50;5094221;28;20027;-71
2022/08/19 01:20:33;;;;;;;14.90;11.50;;;;;;;26.00;100.00;100622.53;5095851;28;20340;-73
2022/08/19 01:23:19;;;;;;;14.30;11.60;;;;;;;25.90;100.00;100630.44;5095382;28;20044;-72
2022/08/19 01:26:04;;;;;;;13.82;10.82;;;;;;;25.77;100.00;100623.53;5095666;28;20359;-72
2022/08/19 01:28:54;;;;;;;14.38;11.00;;;;;;;25.76;100.00;100625.34;5080107;28;20124;-72
2022/08/19 01:31:40;;;;;;;16.13;11.80;;;;;;;26.01;100.00;100624.22;5093834;28;20464;-72
2022/08/19 01:34:25;;;;;;;15.52;12.07;;;;;;;25.70;100.00;100625.84;5094058;28;20097;-72
2022/08/19 01:37:13;;;;;;;16.33;11.65;;;;;;;25.61;100.00;100623.06;5094064;28;20032;-73
2022/08/19 01:39:58;;;;;;;17.33;12.25;;;;;;;26.05;100.00;100626.53;5095110;28;20448;-72
2022/08/19 01:42:44;;;;;;;14.00;11.18;;;;;;;26.05;100.00;100631.03;5094361;28;20051;-72
2022/08/19 01:45:33;;;;;;;15.75;11.45;;;;;;;25.86;100.00;100634.38;5079484;28;20020;-73
2022/08/19 01:48:18;;;;;;;18.33;11.40;;;;;;;25.78;100.00;100635.94;5095209;28;20058;-72
2022/08/19 01:51:05;;;;;;;15.15;11.88;;;;;;;26.09;100.00;100636.06;5094698;28;20023;-73
2022/08/19 01:53:51;;;;;;;13.85;11.77;;;;;;;25.73;100.00;100640.84;5093596;28;20442;-72
2022/08/19 01:56:38;;;;;;;15.57;12.18;;;;;;;25.82;100.00;100642.78;5094112;28;20023;-72
2022/08/19 01:59:24;;;;;;;18.10;12.05;;;;;;;25.76;100.00;100645.97;5094353;28;20507;-72
2022/08/19 02:02:10;;;;;;;15.85;11.65;;;;;;;25.53;100.00;100653.19;5079531;28;20028;-73
2022/08/19 02:04:56;;;;;;;16.45;11.52;;;;;;;25.76;100.00;100654.03;5094833;28;20067;-73
2022/08/19 02:07:41;;;;;;;16.25;11.48;;;;;;;25.84;100.00;100651.56;5093750;28;20024;-72
2022/08/19 02:10:27;;;;;;;12.70;11.20;;;;;;;25.86;100.00;100644.22;5079578;28;20023;-73
2022/08/19 02:13:13;;;;;;;14.68;11.82;;;;;;;25.77;100.00;100647.69;5095189;28;20027;-72
2022/08/19 02:15:59;;;;;;;19.52;13.77;;;;;;;25.68;100.00;100646.56;5092669;28;20444;-73
2022/08/19 02:18:48;;;;;;;20.88;14.15;;;;;;;25.36;100.00;100652.84;5094426;28;20039;-73
2022/08/19 02:21:34;;;;;;;19.15;15.02;;;;;;;25.18;100.00;100649.75;5094984;28;20016;-72
2022/08/19 02:24:20;;;;;;;17.67;14.35;;;;;;;25.31;100.00;100655.03;5078643;28;20024;-73
2022/08/19 02:27:06;;;;;;;20.02;15.13;;;;;;;25.61;100.00;100655.25;5094619;28;20032;-72
2022/08/19 02:29:52;;;;;;;19.33;14.82;;;;;;;25.62;100.00;100659.63;5094691;28;20114;-72
2022/08/19 02:32:38;;;;;;;21.83;15.02;;;;;;;25.40;100.00;100665.03;5093991;28;20039;-73
2022/08/19 02:35:24;;;;;;;19.10;14.52;;;;;;;25.66;100.00;100661.97;5094270;28;20024;-73
2022/08/19 02:38:26;;;;;;;18.73;15.52;;;;;;;25.50;100.00;100672.22;5095045;28;20115;-72
2022/08/19 02:41:23;;;;;;;18.65;15.52;;;;;;;25.69;100.00;100669.78;5100359;28;20096;-72
2022/08/19 02:44:09;;;;;;;18.58;15.38;;;;;;;25.59;100.00;100673.31;5102687;28;20100;-72
2022/08/19 02:46:55;;;;;;;18.02;14.57;;;;;;;25.55;100.00;100674.56;5101540;28;20035;-71
2022/08/19 02:49:41;;;;;;;22.23;14.05;;;;;;;25.38;100.00;100669.66;5100314;28;20097;-71
2022/08/19 02:52:27;;;;;;;23.98;13.75;;;;;;;25.11;100.00;100678.00;5100178;28;20028;-72
2022/08/19 02:55:13;;;;;;;21.33;14.93;;;;;;;25.22;100.00;100675.34;5095746;28;20063;-72
2022/08/19 02:57:59;;;;;;;19.30;14.32;;;;;;;25.24;100.00;100680.59;5095179;28;20028;-72
2022/08/19 03:00:49;;;;;;;20.25;14.95;;;;;;;25.13;100.00;100677.88;5099828;28;20032;-72
2022/08/19 03:03:34;;;;;;;22.40;14.52;;;;;;;25.11;100.00;100679.84;5103353;28;20035;-72
2022/08/19 03:06:21;;;;;;;19.27;13.48;;;;;;;24.87;100.00;100681.75;5102209;28;20444;-72
2022/08/19 03:09:07;;;;;;;19.42;13.98;;;;;;;24.95;100.00;100674.81;5102330;28;20024;-72
2022/08/19 03:11:53;;;;;;;19.95;14.07;;;;;;;25.10;100.00;100675.44;5103042;28;20111;-72
2022/08/19 03:14:39;;;;;;;16.20;12.60;;;;;;;25.08;100.00;100680.09;5105454;28;20028;-72
2022/08/19 03:17:25;;;;;;;20.27;13.65;;;;;;;25.01;100.00;100670.78;5098572;28;20034;-72
2022/08/19 03:20:10;;;;;;;18.88;13.55;;;;;;;24.90;100.00;100674.31;5097801;28;20449;-73
2022/08/19 03:22:56;;;;;;;19.33;13.02;;;;;;;25.08;100.00;100677.41;5098312;28;20081;-72
2022/08/19 03:25:45;;;;;;;17.38;12.90;;;;;;;25.03;100.00;100682.28;5097825;28;20032;-72
2022/08/19 03:28:32;;;;;;;22.08;13.43;;;;;;;25.23;100.00;100685.09;5083129;28;20095;-72
2022/08/19 03:31:22;;;;;;;20.88;13.90;;;;;;;25.28;100.00;100687.47;5097792;28;20032;-73
2022/08/19 03:34:11;;;;;;;19.23;14.15;;;;;;;25.59;100.00;100686.75;5097137;28;20371;-72
2022/08/19 03:37:00;;;;;;;23.85;14.32;;;;;;;25.55;100.00;100691.47;5097900;28;20133;-72
2022/08/19 03:39:46;;;;;;;23.35;13.35;;;;;;;25.49;100.00;100691.13;5096934;28;20039;-73
2022/08/19 03:42:31;;;;;;;18.92;13.90;;;;;;;25.21;100.00;100692.41;5096850;28;20016;-72
2022/08/19 03:45:17;;;;;;;21.17;13.68;;;;;;;25.23;100.00;100701.19;5096090;28;20020;-73
2022/08/19 03:48:03;;;;;;;20.77;13.93;;;;;;;25.56;100.00;100693.19;5096557;28;20106;-73
2022/08/19 03:50:49;;;;;;;19.00;14.80;;;;;;;25.51;100.00;100699.91;5095399;28;20027;-72
2022/08/19 03:53:35;;;;;;;24.55;13.70;;;;;;;25.47;100.00;100703.81;5096145;28;20131;-72
2022/08/19 03:56:22;;;;;;;24.30;14.13;;;;;;;25.51;100.00;100702.59;5081748;28;20039;-73
2022/08/19 03:59:14;;;;;;;23.33;13.80;;;;;;;25.52;100.00;100712.34;5096933;28;20433;-72
2022/08/19 04:02:08;;;;;;;20.50;14.45;;;;;;;25.62;100.00;100710.63;5096962;28;20164;-73
2022/08/19 04:04:55;;;;;;;19.83;14.95;;;;;;;25.80;100.00;100706.50;5082688;28;20024;-72
2022/08/19 04:07:40;;;;;;;18.75;14.05;;;;;;;25.78;100.00;100708.44;5081512;28;20036;-72
2022/08/19 04:10:28;;;;;;;20.85;15.13;;;;;;;25.47;100.00;100712.69;5096937;28;20056;-73
2022/08/19 04:13:17;;;;;;;20.52;15.25;;;;;;;25.32;100.00;100716.59;5081520;28;20024;-73
2022/08/19 04:16:04;;;;;;;21.27;15.02;;;;;;;25.45;100.00;100713.81;5096656;28;20024;-73
2022/08/19 04:18:50;;;;;;;21.08;15.27;;;;;;;25.42;100.00;100722.09;5096666;28;20032;-72
2022/08/19 04:21:36;;;;;;;22.98;14.55;;;;;;;25.20;100.00;100720.19;5096690;28;20028;-73
2022/08/19 04:24:22;;;;;;;22.42;15.70;;;;;;;25.36;100.00;100736.00;5095974;28;20062;-73
2022/08/19 04:27:08;;;;;;;24.50;15.75;;;;;;;25.53;100.00;100735.53;5096077;28;20107;-73
2022/08/19 04:29:54;;;;;;;22.33;14.68;;;;;;;25.68;100.00;100731.63;5095785;28;20111;-74
2022/08/19 04:32:43;;;;;;;24.30;14.93;;;;;;;25.82;100.00;100729.56;5081889;28;20517;-72
2022/08/19 04:35:38;;;;;;;20.20;14.48;;;;;;;25.69;100.00;100727.97;5095159;28;20108;-73
2022/08/19 04:38:24;;;;;;;20.85;12.98;;;;;;;25.81;100.00;100729.66;5081617;28;20032;-72
2022/08/19 04:44:17;;;;;;;18.77;14.20;;;;;;;25.86;100.00;100724.78;5095254;28;20024;-72
2022/08/19 04:47:05;;;;;;;18.77;14.18;;;;;;;26.26;100.00;100725.97;5094917;28;20039;-72
2022/08/19 04:49:51;;;;;;;22.17;13.40;;;;;;;26.04;100.00;100715.28;5095931;28;20056;-73
2022/08/19 04:52:41;;;;;;;19.20;14.73;;;;;;;26.13;100.00;100717.22;5095770;28;20078;-73
2022/08/19 04:55:27;;;;;;;21.15;13.93;;;;;;;26.32;100.00;100714.72;5095522;28;20048;-72
2022/08/19 04:58:13;;;;;;;23.10;15.38;;;;;;;26.38;100.00;100724.97;5094631;28;20024;-72
2022/08/19 05:01:02;;;;;;;23.55;14.50;;;;;;;26.35;100.00;100722.50;5096026;28;20344;-72
2022/08/19 05:03:48;;;;;;;22.83;13.85;;;;;;;26.67;100.00;100726.97;5081456;28;20368;-73
2022/08/19 05:06:36;;;;;;;22.17;14.40;;;;;;;26.66;100.00;100722.59;5067384;28;20349;-72
2022/08/19 05:09:21;;;;;;;19.45;14.63;;;;;;;26.77;100.00;100727.06;5080055;28;20368;-72
2022/08/19 05:12:07;;;;;;;21.15;14.32;;;;;;;26.54;100.00;100728.94;5094279;28;20036;-72
2022/08/19 05:14:56;;;;;;;22.65;15.45;;;;;;;26.77;100.00;100729.75;5080398;28;20111;-73
2022/08/19 05:22:31;;;;;;;22.67;14.50;;;;;;;27.02;100.00;100732.06;5094800;28;20452;-73
2022/08/19 05:23:52;;;;;;;21.00;15.32;;;;;;;27.28;100.00;100731.56;5095458;28;20031;-72
2022/08/19 05:26:46;;;;;;;21.65;15.32;;;;;;;27.02;100.00;100737.44;5094607;28;20456;-73
2022/08/19 05:29:34;;;;;;;22.35;15.18;;;;;;;27.01;100.00;100731.19;5094573;28;20028;-72
2022/08/19 05:32:21;;;;;;;23.27;15.10;;;;;;;27.17;100.00;100731.59;5095254;28;20063;-73
2022/08/19 05:35:08;;;;;;;22.05;13.98;;;;;;;27.42;100.00;100733.06;5079424;28;20036;-72
2022/08/19 05:37:54;;;;;;;21.95;16.70;;;;;;;27.52;100.00;100730.44;5095665;28;20058;-73
2022/08/19 05:40:40;;;;;;;25.90;15.90;;;;;;;27.73;100.00;100734.78;5094689;28;20464;-73
2022/08/19 05:43:25;;;;;;;28.98;17.30;;;;;;;27.77;100.00;100729.97;5079992;28;20035;-72
2022/08/19 05:46:18;;;;;;;23.30;17.23;;;;;;;27.77;100.00;100740.75;5094880;28;20505;-72
2022/08/19 05:49:08;;;;;;;26.63;17.30;;;;;;;27.72;100.00;100748.38;5093989;28;20032;-72
2022/08/19 05:51:55;;;;;;;26.80;18.10;;;;;;;27.75;100.00;100748.09;5093444;28;20028;-73
2022/08/19 05:54:42;;;;;;;25.80;19.63;;;;;;;27.68;100.00;100745.09;5093504;28;20408;-72
2022/08/19 05:57:28;;;;;;;25.63;19.65;;;;;;;27.89;100.00;100751.31;5093880;28;20039;-72
2022/08/19 06:00:15;;;;;;;34.08;20.65;;;;;;;27.96;100.00;100749.78;5079209;28;20031;-72
2022/08/19 06:03:02;;;;;;;28.27;19.98;;;;;;;27.79;100.00;100750.38;5095304;28;20330;-73
2022/08/19 06:05:48;;;;;;;29.65;19.98;;;;;;;28.10;100.00;100751.25;5094165;28;20042;-72
2022/08/19 06:08:37;;;;;;;31.85;20.27;;;;;;;27.98;100.00;100744.25;5080328;28;20024;-72
2022/08/19 06:11:34;;;;;;;31.27;19.75;;;;;;;27.76;100.00;100741.75;5094736;28;20421;-72
2022/08/19 06:14:26;;;;;;;29.73;19.17;;;;;;;27.90;100.00;100744.94;5094265;28;20032;-73
2022/08/19 06:17:12;;;;;;;26.45;20.13;;;;;;;27.67;100.00;100740.69;5093937;28;20424;-72
2022/08/19 06:19:58;;;;;;;35.22;19.77;;;;;;;27.71;100.00;100741.25;5093986;28;20047;-73
2022/08/19 06:22:46;;;;;;;41.28;20.60;;;;;;;27.80;100.00;100735.94;5094485;28;20470;-73
2022/08/19 06:25:32;;;;;;;31.10;19.52;;;;;;;27.95;100.00;100734.59;5093857;28;20024;-73
2022/08/19 06:28:18;;;;;;;27.55;18.58;;;;;;;28.13;100.00;100730.28;5093195;28;20042;-72
2022/08/19 06:31:07;;;;;;;27.83;19.13;;;;;;;28.15;100.00;100730.13;5093822;28;20024;-72
2022/08/19 06:33:53;;;;;;;27.30;16.60;;;;;;;28.26;100.00;100738.97;5094534;28;20048;-74
2022/08/19 06:36:42;;;;;;;22.42;15.82;;;;;;;28.27;100.00;100729.88;5094813;28;20062;-73
2022/08/19 06:39:38;;;;;;;21.08;15.80;;;;;;;28.57;100.00;100739.75;5094835;28;20036;-72
2022/08/19 06:42:24;;;;;;;23.58;17.40;;;;;;;28.62;100.00;100734.78;5094556;28;20016;-72
2022/08/19 06:45:10;;;;;;;22.92;14.88;;;;;;;28.55;100.00;100734.50;5094389;28;20039;-72
2022/08/19 06:47:57;;;;;;;24.10;15.75;;;;;;;28.72;100.00;100733.78;5098346;28;20111;-73
2022/08/19 06:50:43;;;;;;;23.75;16.38;;;;;;;28.82;100.00;100736.50;5098297;28;20451;-73
2022/08/19 06:53:29;;;;;;;19.88;13.27;;;;;;;29.02;100.00;100738.22;5098367;28;20052;-73
2022/08/19 06:56:17;;;;;;;19.52;14.63;;;;;;;29.19;100.00;100729.38;5098639;28;20032;-75
2022/08/19 06:59:10;;;;;;;23.33;16.08;;;;;;;29.15;100.00;100734.22;5098737;28;20055;-72
2022/08/19 07:01:57;;;;;;;22.33;13.50;;;;;;;29.50;100.00;100728.19;5083068;28;20081;-73
2022/08/19 07:04:45;;;;;;;20.80;12.50;;;;;;;29.57;100.00;100742.81;5097648;28;20078;-73
2022/08/19 07:07:34;;;;;;;15.38;11.40;;;;;;;29.68;100.00;100739.94;5098412;28;20088;-73
2022/08/19 07:10:20;;;;;;;18.70;13.38;;;;;;;29.84;100.00;100740.16;5098527;28;20097;-73
2022/08/19 07:13:07;;;;;;;19.65;11.50;;;;;;;29.66;100.00;100741.94;5098088;28;20039;-73
2022/08/19 07:15:53;;;;;;;18.35;11.68;;;;;;;29.97;100.00;100738.81;5097088;28;20028;-73
2022/08/19 07:18:39;;;;;;;16.48;10.93;;;;;;;30.00;100.00;100743.94;5097177;28;20055;-72
2022/08/19 07:21:28;;;;;;;13.93;9.98;;;;;;;29.86;100.00;100735.47;5097489;28;20027;-72
2022/08/19 07:24:16;;;;;;;15.43;10.00;;;;;;;30.02;100.00;100741.09;5082747;28;20337;-74
2022/08/19 07:27:04;;;;;;;13.50;10.23;;;;;;;30.53;100.00;100744.03;5082444;28;20032;-73
2022/08/19 07:29:51;;;;;;;15.18;9.40;;;;;;;30.47;100.00;100750.94;5098093;28;20471;-73
2022/08/19 07:32:36;;;;;;;13.00;9.35;;;;;;;30.59;100.00;100744.31;5096439;28;20038;-73
2022/08/19 07:35:23;;;;;;;13.48;9.68;;;;;;;30.63;100.00;100747.56;5097297;28;20073;-71
2022/08/19 07:38:09;;;;;;;12.98;9.55;;;;;;;30.44;99.55;100742.28;5098239;28;20119;-73
2022/08/19 07:40:55;;;;;;;14.60;9.02;;;;;;;30.69;97.77;100755.94;5097917;28;20035;-72
2022/08/19 07:43:43;;;;;;;12.95;9.20;;;;;;;30.82;99.61;100748.28;5097206;28;20120;-73
2022/08/19 07:46:31;;;;;;;12.38;9.05;;;;;;;30.74;98.51;100752.78;5082315;28;20039;-72
2022/08/19 07:49:21;;;;;;;10.60;9.25;;;;;;;30.82;98.13;100752.84;5083015;28;20024;-73
2022/08/19 07:52:08;;;;;;;13.80;9.55;;;;;;;30.81;99.37;100751.13;5098194;28;20039;-72
2022/08/19 07:54:54;;;;;;;11.40;10.18;;;;;;;31.33;96.55;100757.53;5096885;28;20048;-73
2022/08/19 07:57:40;;;;;;;18.00;14.07;;;;;;;31.30;95.29;100770.38;5096372;28;20101;-72
2022/08/19 08:00:26;;;;;;;12.40;9.43;;;;;;;31.19;96.71;100764.34;5098075;28;20039;-72
2022/08/19 08:03:19;;;;;;;13.95;8.95;;;;;;;31.38;96.80;100755.19;5097352;28;20364;-72
2022/08/19 08:09:11;;;;;;;13.27;8.75;;;;;;;31.65;95.77;100747.75;5097736;28;20456;-73
2022/08/19 08:12:05;;;;;;;11.88;8.43;;;;;;;31.94;93.44;100761.81;5096956;28;20028;-75
2022/08/19 08:14:54;;;;;;;17.63;13.10;;;;;;;32.09;92.24;100745.78;5096677;28;20486;-73
2022/08/19 08:17:40;;;;;;;13.50;10.02;;;;;;;32.30;91.01;100748.97;5098224;28;20117;-72
2022/08/19 08:20:26;;;;;;;12.70;8.65;;;;;;;32.11;91.33;100741.06;5097106;28;20341;-73
2022/08/19 08:23:28;;;;;;;12.32;8.65;;;;;;;32.15;90.45;100739.72;5096651;28;20024;-72
2022/08/19 08:26:14;;;;;;;11.80;9.13;;;;;;;31.90;91.62;100729.81;5096657;28;20024;-71
2022/08/19 08:29:03;;;;;;;12.10;9.38;;;;;;;32.84;87.03;100743.00;5081359;28;20130;-73
2022/08/19 08:31:49;;;;;;;13.85;9.13;;;;;;;32.87;89.65;100732.63;5081344;28;20039;-73
2022/08/19 08:34:36;;;;;;;13.68;9.35;;;;;;;33.13;87.14;100743.34;5081354;28;20115;-73
2022/08/19 08:37:22;;;;;;;13.38;9.20;;;;;;;33.25;83.41;100745.53;5096960;28;20432;-72
2022/08/19 08:40:23;;;;;;;13.93;9.10;;;;;;;34.19;78.20;100735.66;5095485;28;20036;-73
2022/08/19 08:43:26;;;;;;;10.18;9.07;;;;;;;34.35;74.56;100735.59;5096751;28;20051;-73
2022/08/19 08:46:19;;;;;;;13.48;8.88;;;;;;;33.92;77.46;100722.50;5081844;28;20020;-73
2022/08/19 08:49:14;;;;;;;11.90;9.00;;;;;;;33.94;76.76;100725.88;5095824;28;20439;-73
2022/08/19 08:52:21;;;;;;;11.75;9.27;;;;;;;33.69;76.60;100730.56;5096077;28;20448;-72
2022/08/19 08:55:11;;;;;;;12.13;9.32;;;;;;;33.63;80.11;100731.22;5095780;28;20476;-73
2022/08/19 08:58:06;;;;;;;13.93;9.13;;;;;;;34.15;75.16;100728.88;5080542;28;20405;-74
2022/08/19 09:00:52;;;;;;;11.77;9.27;;;;;;;33.80;75.11;100722.03;5080892;28;20027;-74
2022/08/19 09:03:42;;;;;;;13.82;9.38;;;;;;;33.47;75.40;100723.13;5096854;28;20451;-73
2022/08/19 09:06:38;;;;;;;16.85;9.45;;;;;;;34.21;72.76;100731.72;5095804;28;20038;-72
2022/08/19 09:09:51;;;;;;;10.60;9.35;;;;;;;34.37;71.93;100733.53;5079172;28;20115;-73
2022/08/19 09:12:53;;;;;;;11.85;9.63;;;;;;;34.44;71.44;100729.91;5095624;28;20352;-74
2022/08/19 09:15:52;;;;;;;19.50;9.10;;;;;;;34.33;72.10;100724.91;5094456;28;20031;-73
2022/08/19 09:18:46;;;;;;;13.80;9.07;;;;;;;34.32;71.19;100728.63;5095430;28;20364;-72
2022/08/19 09:21:34;;;;;;;12.70;9.40;;;;;;;34.59;71.43;100735.47;5096471;28;20377;-73
2022/08/19 09:24:20;;;;;;;11.32;9.30;;;;;;;34.31;68.66;100735.09;5094885;28;20408;-73
2022/08/19 09:27:05;;;;;;;14.73;9.73;;;;;;;33.91;71.12;100723.53;5095503;28;20020;-72
2022/08/19 09:29:53;;;;;;;16.08;9.73;;;;;;;34.34;68.36;100732.03;5096092;28;20367;-73
2022/08/19 09:32:41;;;;;;;11.55;8.70;;;;;;;34.55;66.71;100725.97;5096298;28;20028;-73
2022/08/19 09:35:30;;;;;;;14.27;10.18;;;;;;;34.89;68.76;100726.41;5098879;28;20032;-72
2022/08/19 09:38:15;;;;;;;13.85;9.40;;;;;;;34.10;68.19;100721.25;5097066;28;20090;-72
2022/08/19 09:41:04;;;;;;;13.23;9.43;;;;;;;34.05;70.69;100715.50;5095980;28;20107;-72
2022/08/19 09:43:55;;;;;;;12.10;9.25;;;;;;;34.59;67.71;100713.69;5096045;28;20032;-73
2022/08/19 09:46:41;;;;;;;13.55;8.55;;;;;;;34.83;65.23;100716.22;5094172;28;20034;-74
2022/08/19 09:49:27;;;;;;;13.25;8.85;;;;;;;34.50;66.30;100712.03;5094954;28;20036;-73
2022/08/19 09:52:15;;;;;;;10.98;8.57;;;;;;;34.04;68.37;100708.31;5093754;28;20034;-72
2022/08/19 09:55:00;;;;;;;9.93;8.48;;;;;;;34.17;67.95;100718.66;5080654;28;20386;-73
2022/08/19 09:57:46;;;;;;;17.45;11.43;;;;;;;33.70;73.59;100702.34;5095411;28;20034;-72
2022/08/19 10:00:32;;;;;;;10.10;8.93;;;;;;;33.85;70.06;100699.75;5094788;28;20057;-73
2022/08/19 10:03:18;;;;;;;17.40;9.48;;;;;;;33.58;72.06;100708.31;5080188;28;20027;-73
2022/08/19 10:06:05;;;;;;;11.95;9.18;;;;;;;33.39;72.65;100698.69;5081063;28;20428;-73
2022/08/19 10:08:52;;;;;;;10.65;9.30;;;;;;;33.80;71.63;100692.13;5094485;28;20359;-72
2022/08/19 10:11:42;;;;;;;15.38;9.45;;;;;;;34.01;68.61;100710.56;5096444;28;20032;-72
2022/08/19 10:14:29;;;;;;;11.77;8.85;;;;;;;34.05;69.33;100692.88;5096145;28;20081;-72
2022/08/19 10:17:14;;;;;;;10.48;8.40;;;;;;;33.99;67.01;100688.16;5095182;28;20106;-73
2022/08/19 10:20:02;;;;;;;11.70;8.82;;;;;;;33.69;68.40;100681.63;5094723;28;20170;-73
2022/08/19 10:22:48;;;;;;;13.55;8.40;;;;;;;34.60;66.87;100688.97;5084886;28;20020;-73
2022/08/19 10:25:34;;;;;;;13.60;8.95;;;;;;;34.89;64.22;100688.28;5099348;28;20028;-72
2022/08/19 10:28:20;;;;;;;10.05;8.88;;;;;;;34.46;63.42;100686.19;5100513;28;20046;-72
2022/08/19 10:31:11;;;;;;;12.38;8.85;;;;;;;34.24;66.36;100684.28;5097915;28;20028;-72
2022/08/19 10:33:58;;;;;;;13.80;9.23;;;;;;;34.41;68.84;100680.44;5098644;28;20455;-72
2022/08/19 10:36:43;;;;;;;13.15;9.15;;;;;;;34.17;64.58;100675.97;5098085;28;20039;-73
2022/08/19 10:39:31;;;;;;;12.43;8.60;;;;;;;34.33;65.99;100675.91;5084050;28;20016;-73
2022/08/19 10:42:18;;;;;;;12.65;9.20;;;;;;;34.14;63.58;100679.06;5097707;28;20031;-73
2022/08/19 10:45:05;;;;;;;11.40;8.35;;;;;;;34.03;61.65;100674.00;5097665;28;20043;-73
2022/08/19 10:47:54;;;;;;;12.93;8.65;;;;;;;34.40;61.61;100670.59;5084433;28;20107;-72
2022/08/19 10:53:48;;;;;;;16.80;9.13;;;;;;;34.81;63.00;100670.16;5098517;28;20372;-74
2022/08/19 10:56:55;;;;;;;14.98;9.27;;;;;;;34.65;60.94;100674.81;5098803;28;20375;-73
2022/08/19 10:59:41;;;;;;;10.45;9.27;;;;;;;33.84;62.30;100669.03;5097763;28;20039;-73
2022/08/19 11:02:28;;;;;;;13.07;9.10;;;;;;;34.26;63.37;100663.16;5083633;28;20070;-73
2022/08/19 11:05:14;;;;;;;16.02;8.30;;;;;;;34.79;58.94;100669.44;5098458;28;20024;-73
2022/08/19 11:08:01;;;;;;;11.93;8.65;;;;;;;34.71;58.51;100671.38;5084255;28;20032;-73
2022/08/19 11:10:56;;;;;;;12.13;8.43;;;;;;;34.64;58.62;100664.97;5098770;28;20462;-74
